createdAt,value
2023-01-29T00:00:03.388Z,90.37
2023-01-29T00:05:28.719Z,89.03
2023-01-29T00:10:02.782Z,90.04
2023-01-29T00:15:03.290Z,89.18
2023-01-29T00:20:03.301Z,88.4
2023-01-29T00:25:03.204Z,89.06
2023-01-29T00:30:03.079Z,88.97
2023-01-29T00:35:02.769Z,89.26
2023-01-29T00:40:02.521Z,88.45
2023-01-29T00:45:03.344Z,88.53
2023-01-29T00:50:03.013Z,88.93
2023-01-29T00:55:03.113Z,88.43
2023-01-29T01:00:03.064Z,89.19
2023-01-29T01:05:03.115Z,88.69
2023-01-29T01:10:02.979Z,88.85
2023-01-29T01:15:03.065Z,88.82
2023-01-29T01:20:02.785Z,89.3
2023-01-29T01:25:02.488Z,88.7
2023-01-29T01:30:02.670Z,88
2023-01-29T01:35:03.415Z,88.8
2023-01-29T01:40:03.253Z,88.96
2023-01-29T01:45:03.446Z,89.29
2023-01-29T01:50:02.751Z,89.57
2023-01-29T01:55:03.542Z,89.82
2023-01-29T02:00:02.534Z,90.13
2023-01-29T02:05:03.296Z,89.26
2023-01-29T02:10:03.093Z,89.24
2023-01-29T02:15:03.236Z,89.09
2023-01-29T02:20:02.561Z,88.32
2023-01-29T02:25:03.339Z,89.55
2023-01-29T02:30:03.096Z,90.13
2023-01-29T02:35:02.831Z,90.46
2023-01-29T02:40:02.905Z,90.64
2023-01-29T02:45:02.563Z,90.73
2023-01-29T02:50:03.324Z,90.81
2023-01-29T02:55:03.535Z,90.97
2023-01-29T03:00:02.899Z,91.35
2023-01-29T03:05:03.139Z,91.83
2023-01-29T03:10:02.986Z,91.67
2023-01-29T03:15:03.092Z,91.13
2023-01-29T03:20:02.639Z,90.67
2023-01-29T03:25:02.574Z,90.21
2023-01-29T03:30:03.771Z,90.34
2023-01-29T03:35:03.371Z,90.11
2023-01-29T03:40:02.936Z,89.7
2023-01-29T03:45:02.771Z,89.73
2023-01-29T03:50:02.952Z,90.77
2023-01-29T03:55:03.409Z,90.83
2023-01-29T04:00:02.937Z,91.63
2023-01-29T04:05:02.367Z,91.83
2023-01-29T04:10:03.366Z,92.31
2023-01-29T04:15:03.136Z,92.02
2023-01-29T04:20:02.953Z,91.98
2023-01-29T04:25:02.888Z,91.45
2023-01-29T04:30:02.553Z,91.74
2023-01-29T04:35:03.240Z,90.83
2023-01-29T04:40:03.131Z,90.88
2023-01-29T04:45:02.881Z,90.34
2023-01-29T04:50:02.865Z,90.26
2023-01-29T04:55:02.984Z,89.63
2023-01-29T05:00:03.311Z,89.75
2023-01-29T05:05:03.025Z,89.38
2023-01-29T05:10:02.833Z,90.05
2023-01-29T05:15:02.893Z,89.92
2023-01-29T05:20:02.712Z,90.74
2023-01-29T05:25:02.681Z,90.31
2023-01-29T05:30:03.454Z,90.37
2023-01-29T05:35:03.446Z,90.92
2023-01-29T05:40:03.177Z,91.64
2023-01-29T05:45:03.049Z,91.86
2023-01-29T05:50:02.768Z,91.38
2023-01-29T05:55:02.965Z,92.22
2023-01-29T06:00:02.896Z,93.63
2023-01-29T06:05:03.005Z,95.17
2023-01-29T06:10:02.925Z,95.2
2023-01-29T06:15:03.280Z,94.69
2023-01-29T06:20:02.734Z,96.84
2023-01-29T06:25:03.355Z,98.42
2023-01-29T06:30:03.201Z,99.41
2023-01-29T06:35:03.156Z,99.85
2023-01-29T06:40:02.946Z,100
2023-01-29T06:45:03.042Z,100
2023-01-29T06:50:02.809Z,100
2023-01-29T06:55:02.628Z,100
2023-01-29T07:00:03.375Z,100
2023-01-29T07:05:03.116Z,100
2023-01-29T07:10:03.150Z,100
2023-01-29T07:15:02.998Z,100
2023-01-29T07:20:02.535Z,100
2023-01-29T07:25:02.581Z,99.72
2023-01-29T07:30:03.451Z,100
2023-01-29T07:35:03.215Z,99.41
2023-01-29T07:40:03.077Z,99.23
2023-01-29T07:45:02.817Z,98.78
2023-01-29T07:50:02.939Z,98.85
2023-01-29T07:55:02.962Z,98.66
2023-01-29T08:00:03.531Z,98.56
2023-01-29T08:05:03.307Z,98.25
2023-01-29T08:10:02.943Z,97.93
2023-01-29T08:15:02.773Z,97.26
2023-01-29T08:20:02.546Z,97.37
2023-01-29T08:25:08.881Z,97.33
2023-01-29T08:30:02.758Z,97.05
2023-01-29T08:35:03.104Z,97.04
2023-01-29T08:40:03.567Z,97.42
2023-01-29T08:45:03.294Z,97.17
2023-01-29T08:50:02.979Z,96.8
2023-01-29T08:55:02.923Z,97.12
2023-01-29T09:00:03.489Z,97.45
2023-01-29T09:05:03.216Z,96.92
2023-01-29T09:10:02.929Z,96.98
2023-01-29T09:15:02.876Z,97.31
2023-01-29T09:20:02.673Z,96.06
2023-01-29T09:25:03.353Z,96.77
2023-01-29T09:30:03.132Z,96.59
2023-01-29T09:35:03.187Z,96.92
2023-01-29T09:40:02.556Z,96.65
2023-01-29T09:45:03.489Z,96.26
2023-01-29T09:50:03.139Z,96.42
2023-01-29T09:55:03.641Z,95.22
2023-01-29T10:00:02.720Z,96.03
2023-01-29T10:05:02.681Z,95.13
2023-01-29T10:10:02.577Z,95.09
2023-01-29T10:15:03.320Z,95.32
2023-01-29T10:20:03.092Z,95.22
2023-01-29T10:25:02.835Z,95
2023-01-29T10:30:02.633Z,94.67
2023-01-29T10:35:03.202Z,94.3
2023-01-29T10:40:03.175Z,94.24
2023-01-29T10:45:03.126Z,93.9
2023-01-29T10:50:02.842Z,93.45
2023-01-29T10:55:03.635Z,93.09
2023-01-29T11:00:03.171Z,92.37
2023-01-29T11:05:03.168Z,92.5
2023-01-29T11:10:02.873Z,91.41
2023-01-29T11:15:03.521Z,91.94
2023-01-29T11:20:03.458Z,91.46
2023-01-29T11:25:03.293Z,91.26
2023-01-29T11:30:03.084Z,89.82
2023-01-29T11:35:02.674Z,90.06
2023-01-29T11:40:03.452Z,89.83
2023-01-29T11:45:03.594Z,89.11
2023-01-29T11:50:03.188Z,87.86
2023-01-29T11:55:03.962Z,87.66
2023-01-29T12:00:03.128Z,87.69
2023-01-29T12:05:03.123Z,88.15
2023-01-29T12:10:03.077Z,87.88
2023-01-29T12:15:02.877Z,87.9
2023-01-29T12:20:02.802Z,87.29
2023-01-29T12:25:02.709Z,88.47
2023-01-29T12:30:02.609Z,88.35
2023-01-29T12:35:03.370Z,87.12
2023-01-29T12:40:02.993Z,87.75
2023-01-29T12:45:02.706Z,88.41
2023-01-29T12:50:03.469Z,88.22
2023-01-29T12:55:03.176Z,87.22
2023-01-29T13:00:03.472Z,87.81
2023-01-29T13:05:03.243Z,89.17
2023-01-29T13:10:03.148Z,87.96
2023-01-29T13:15:02.602Z,88.11
2023-01-29T13:20:02.767Z,91.06
2023-01-29T13:25:06.317Z,89.14
2023-01-29T13:30:03.657Z,89.72
2023-01-29T13:35:02.896Z,89.51
2023-01-29T13:40:02.666Z,89.59
2023-01-29T13:45:03.483Z,89.98
2023-01-29T13:50:03.160Z,92.25
2023-01-29T13:55:03.160Z,91.93
2023-01-29T14:00:03.142Z,94.06
2023-01-29T14:05:02.477Z,94.53
2023-01-29T14:10:03.121Z,95
2023-01-29T14:15:03.586Z,95.63
2023-01-29T14:20:03.331Z,95.01
2023-01-29T14:25:03.135Z,96.3
2023-01-29T14:30:03.111Z,96.92
2023-01-29T14:35:02.665Z,97.42
2023-01-29T14:40:03.420Z,97.55
2023-01-29T14:45:03.327Z,97.32
2023-01-29T14:50:03.415Z,97.44
2023-01-29T14:55:03.473Z,96.83
2023-01-29T15:00:03.010Z,96.45
2023-01-29T15:05:02.801Z,96.12
2023-01-29T15:10:23.686Z,96.76
2023-01-29T15:15:03.525Z,95.75
2023-01-29T15:20:03.323Z,96.39
2023-01-29T15:25:03.447Z,96.45
2023-01-29T15:30:03.115Z,96.52
2023-01-29T15:35:02.734Z,95.6
2023-01-29T15:40:02.788Z,95.69
2023-01-29T15:45:03.552Z,95.46
2023-01-29T15:50:03.311Z,95.57
2023-01-29T15:55:02.714Z,96.31
2023-01-29T16:00:03.344Z,95.6
2023-01-29T16:05:03.465Z,96.01
2023-01-29T16:10:03.171Z,95.55
2023-01-29T16:15:03.127Z,95.07
2023-01-29T16:20:02.820Z,94.27
2023-01-29T16:25:02.827Z,93.91
2023-01-29T16:30:02.580Z,93.68
2023-01-29T16:35:03.417Z,93.81
2023-01-29T16:40:03.132Z,94.06
2023-01-29T16:45:03.373Z,94.68
2023-01-29T16:50:03.147Z,93.29
2023-01-29T16:55:03.314Z,93.28
2023-01-29T17:00:02.865Z,93.8
2023-01-29T17:05:03.023Z,93.25
2023-01-29T17:10:02.688Z,93.39
2023-01-29T17:15:03.400Z,92.35
2023-01-29T17:20:03.801Z,92.5
2023-01-29T17:25:03.303Z,93.46
2023-01-29T17:30:02.915Z,92.56
2023-01-29T17:35:02.611Z,91.94
2023-01-29T17:40:05.709Z,91.83
2023-01-29T17:45:03.199Z,91.4
2023-01-29T17:50:02.748Z,90.78
2023-01-29T17:55:03.713Z,90.3
2023-01-29T18:00:02.959Z,90.21
2023-01-29T18:05:02.585Z,90.32
2023-01-29T18:10:03.380Z,90.02
2023-01-29T18:15:03.891Z,90.17
2023-01-29T18:20:03.161Z,89.27
2023-01-29T18:25:02.807Z,89.07
2023-01-29T18:30:03.511Z,89.37
2023-01-29T18:35:03.275Z,88.32
2023-01-29T18:40:02.943Z,88.78
2023-01-29T18:45:03.296Z,88.56
2023-01-29T18:50:02.782Z,87.14
2023-01-29T18:55:02.961Z,87.66
2023-01-29T19:00:04.577Z,87.42
2023-01-29T19:05:03.717Z,87.63
2023-01-29T19:10:03.262Z,86.59
2023-01-29T19:15:02.860Z,87.92
2023-01-29T19:20:02.732Z,89.21
2023-01-29T19:25:03.309Z,87.29
2023-01-29T19:30:03.209Z,88.44
2023-01-29T19:35:03.217Z,89.39
2023-01-29T19:40:02.912Z,86.58
2023-01-29T19:45:02.866Z,87.8
2023-01-29T19:50:02.613Z,86.83
2023-01-29T19:55:03.485Z,87.14
2023-01-29T20:00:03.202Z,85.61
2023-01-29T20:05:02.490Z,87.01
2023-01-29T20:10:02.232Z,86.63
2023-01-29T20:15:03.584Z,86.37
2023-01-29T20:20:03.371Z,86.89
2023-01-29T20:25:03.254Z,86.91
2023-01-29T20:30:03.005Z,87.07
2023-01-29T20:35:02.622Z,85.4
2023-01-29T20:40:03.347Z,87.44
2023-01-29T20:45:03.182Z,86.12
2023-01-29T20:50:03.133Z,86.7
2023-01-29T20:55:03.635Z,86.48
2023-01-29T21:00:02.603Z,85.53
2023-01-29T21:05:03.259Z,85.75
2023-01-29T21:10:03.014Z,85.27
2023-01-29T21:15:02.786Z,85.59
2023-01-29T21:20:02.618Z,85.57
2023-01-29T21:25:03.371Z,86.8
2023-01-29T21:30:03.513Z,85.45
2023-01-29T21:35:03.210Z,86.2
2023-01-29T21:40:03.135Z,86.13
2023-01-29T21:45:03.111Z,85.78
2023-01-29T21:50:02.736Z,84.11
2023-01-29T21:55:03.892Z,84.4
2023-01-29T22:00:03.294Z,84.64
2023-01-29T22:05:20.547Z,84.22
2023-01-29T22:10:03.478Z,84.13
2023-01-29T22:15:03.075Z,83.94
2023-01-29T22:20:02.994Z,83.41
2023-01-29T22:25:02.538Z,83.92
2023-01-29T22:30:03.550Z,84.45
2023-01-29T22:35:03.297Z,83.22
2023-01-29T22:40:03.066Z,84.91
2023-01-29T22:45:02.880Z,84.52
2023-01-29T22:50:02.584Z,84.51
2023-01-29T22:55:03.797Z,84.83
2023-01-29T23:00:02.993Z,85.63
2023-01-29T23:05:02.676Z,87.55
2023-01-29T23:10:02.528Z,85.54
2023-01-29T23:15:03.363Z,86.14
2023-01-29T23:20:03.188Z,86.41
2023-01-29T23:25:03.069Z,85.74
2023-01-29T23:30:03.113Z,85.55
2023-01-29T23:35:03.473Z,84.88
2023-01-29T23:40:03.557Z,84.43
2023-01-29T23:45:03.151Z,83.71
2023-01-29T23:50:03.089Z,85.26
2023-01-29T23:55:03.027Z,84.44
